sensor_id;sensor_type;location;lat;lon;timestamp;P1;durP1;ratioP1;P2;durP2;ratioP2
37657;SDS011;23500;53.268;8.308;2022-12-07T00:01:26;6.27;;;5.77;;
37657;SDS011;23500;53.268;8.308;2022-12-07T00:04:06;6.00;;;5.40;;
37657;SDS011;23500;53.268;8.308;2022-12-07T00:06:36;6.00;;;5.53;;
37657;SDS011;23500;53.268;8.308;2022-12-07T00:09:07;6.10;;;5.60;;
37657;SDS011;23500;53.268;8.308;2022-12-07T00:11:35;5.87;;;5.37;;
37657;SDS011;23500;53.268;8.308;2022-12-07T00:14:02;5.50;;;5.10;;
37657;SDS011;23500;53.268;8.308;2022-12-07T00:16:30;5.63;;;5.17;;
37657;SDS011;23500;53.268;8.308;2022-12-07T00:18:57;5.23;;;4.83;;
37657;SDS011;23500;53.268;8.308;2022-12-07T00:21:25;5.60;;;5.10;;
37657;SDS011;23500;53.268;8.308;2022-12-07T00:23:52;5.60;;;5.10;;
37657;SDS011;23500;53.268;8.308;2022-12-07T00:26:38;4.93;;;4.53;;
37657;SDS011;23500;53.268;8.308;2022-12-07T00:29:06;5.45;;;4.95;;
37657;SDS011;23500;53.268;8.308;2022-12-07T00:31:36;5.53;;;5.10;;
37657;SDS011;23500;53.268;8.308;2022-12-07T00:34:04;5.43;;;5.03;;
37657;SDS011;23500;53.268;8.308;2022-12-07T00:36:31;5.38;;;4.97;;
37657;SDS011;23500;53.268;8.308;2022-12-07T00:38:57;5.30;;;4.90;;
37657;SDS011;23500;53.268;8.308;2022-12-07T00:41:24;5.40;;;5.00;;
37657;SDS011;23500;53.268;8.308;2022-12-07T00:43:51;5.22;;;4.82;;
37657;SDS011;23500;53.268;8.308;2022-12-07T00:46:18;5.30;;;4.80;;
37657;SDS011;23500;53.268;8.308;2022-12-07T00:48:45;4.80;;;4.43;;
37657;SDS011;23500;53.268;8.308;2022-12-07T00:51:12;5.00;;;4.60;;
37657;SDS011;23500;53.268;8.308;2022-12-07T00:53:39;4.80;;;4.43;;
37657;SDS011;23500;53.268;8.308;2022-12-07T00:56:09;5.03;;;4.63;;
37657;SDS011;23500;53.268;8.308;2022-12-07T00:58:37;5.05;;;4.65;;
37657;SDS011;23500;53.268;8.308;2022-12-07T01:01:03;4.95;;;4.55;;
37657;SDS011;23500;53.268;8.308;2022-12-07T01:03:31;4.55;;;4.15;;
37657;SDS011;23500;53.268;8.308;2022-12-07T01:05:57;4.85;;;4.45;;
37657;SDS011;23500;53.268;8.308;2022-12-07T01:08:23;4.90;;;4.50;;
37657;SDS011;23500;53.268;8.308;2022-12-07T01:10:57;4.50;;;4.20;;
37657;SDS011;23500;53.268;8.308;2022-12-07T01:13:26;4.97;;;4.57;;
37657;SDS011;23500;53.268;8.308;2022-12-07T01:15:55;5.03;;;4.63;;
37657;SDS011;23500;53.268;8.308;2022-12-07T01:18:23;4.90;;;4.50;;
37657;SDS011;23500;53.268;8.308;2022-12-07T01:21:01;4.80;;;4.40;;
37657;SDS011;23500;53.268;8.308;2022-12-07T01:23:32;4.80;;;4.40;;
37657;SDS011;23500;53.268;8.308;2022-12-07T01:26:00;5.07;;;4.53;;
37657;SDS011;23500;53.268;8.308;2022-12-07T01:28:27;5.28;;;4.88;;
37657;SDS011;23500;53.268;8.308;2022-12-07T01:31:03;4.40;;;4.10;;
37657;SDS011;23500;53.268;8.308;2022-12-07T01:33:34;4.82;;;4.50;;
37657;SDS011;23500;53.268;8.308;2022-12-07T01:36:05;5.03;;;4.63;;
37657;SDS011;23500;53.268;8.308;2022-12-07T01:38:33;4.97;;;4.57;;
37657;SDS011;23500;53.268;8.308;2022-12-07T01:41:00;5.00;;;4.60;;
37657;SDS011;23500;53.268;8.308;2022-12-07T01:43:27;4.75;;;4.45;;
37657;SDS011;23500;53.268;8.308;2022-12-07T01:45:54;4.85;;;4.45;;
37657;SDS011;23500;53.268;8.308;2022-12-07T01:48:23;4.70;;;4.38;;
37657;SDS011;23500;53.268;8.308;2022-12-07T01:50:55;4.60;;;4.30;;
37657;SDS011;23500;53.268;8.308;2022-12-07T01:53:25;4.43;;;4.03;;
37657;SDS011;23500;53.268;8.308;2022-12-07T01:55:55;4.53;;;4.22;;
37657;SDS011;23500;53.268;8.308;2022-12-07T01:58:22;4.30;;;4.00;;
37657;SDS011;23500;53.268;8.308;2022-12-07T02:00:49;4.38;;;3.97;;
37657;SDS011;23500;53.268;8.308;2022-12-07T02:05:40;4.15;;;3.85;;
37657;SDS011;23500;53.268;8.308;2022-12-07T02:08:07;4.63;;;4.22;;
37657;SDS011;23500;53.268;8.308;2022-12-07T02:10:34;4.38;;;4.07;;
37657;SDS011;23500;53.268;8.308;2022-12-07T02:24:48;4.03;;;3.72;;
37657;SDS011;23500;53.268;8.308;2022-12-07T02:30:21;4.32;;;4.03;;
37657;SDS011;23500;53.268;8.308;2022-12-07T02:35:28;4.50;;;4.10;;
37657;SDS011;23500;53.268;8.308;2022-12-07T02:40:35;4.13;;;3.83;;
37657;SDS011;23500;53.268;8.308;2022-12-07T02:43:08;4.70;;;4.30;;
37657;SDS011;23500;53.268;8.308;2022-12-07T02:45:40;3.90;;;3.60;;
37657;SDS011;23500;53.268;8.308;2022-12-07T02:48:07;4.40;;;4.07;;
37657;SDS011;23500;53.268;8.308;2022-12-07T02:50:35;4.00;;;3.70;;
37657;SDS011;23500;53.268;8.308;2022-12-07T02:53:00;4.25;;;3.95;;
37657;SDS011;23500;53.268;8.308;2022-12-07T02:55:28;3.63;;;3.42;;
37657;SDS011;23500;53.268;8.308;2022-12-07T03:03:52;4.07;;;3.78;;
37657;SDS011;23500;53.268;8.308;2022-12-07T03:06:35;3.65;;;3.40;;
37657;SDS011;23500;53.268;8.308;2022-12-07T03:09:16;3.97;;;3.67;;
37657;SDS011;23500;53.268;8.308;2022-12-07T03:12:12;4.00;;;3.70;;
37657;SDS011;23500;53.268;8.308;2022-12-07T03:14:59;4.00;;;3.70;;
37657;SDS011;23500;53.268;8.308;2022-12-07T03:17:28;3.90;;;3.60;;
37657;SDS011;23500;53.268;8.308;2022-12-07T03:19:58;3.90;;;3.65;;
37657;SDS011;23500;53.268;8.308;2022-12-07T03:22:25;3.90;;;3.60;;
37657;SDS011;23500;53.268;8.308;2022-12-07T03:24:56;4.00;;;3.70;;
37657;SDS011;23500;53.268;8.308;2022-12-07T03:27:26;3.75;;;3.45;;
37657;SDS011;23500;53.268;8.308;2022-12-07T03:35:32;4.03;;;3.72;;
37657;SDS011;23500;53.268;8.308;2022-12-07T03:38:00;3.95;;;3.55;;
37657;SDS011;23500;53.268;8.308;2022-12-07T03:40:44;3.85;;;3.53;;
37657;SDS011;23500;53.268;8.308;2022-12-07T03:43:22;4.18;;;3.88;;
37657;SDS011;23500;53.268;8.308;2022-12-07T03:45:55;3.38;;;3.17;;
37657;SDS011;23500;53.268;8.308;2022-12-07T03:48:54;3.78;;;3.47;;
37657;SDS011;23500;53.268;8.308;2022-12-07T03:51:30;3.40;;;3.20;;
37657;SDS011;23500;53.268;8.308;2022-12-07T03:54:31;3.83;;;3.53;;
37657;SDS011;23500;53.268;8.308;2022-12-07T03:57:01;3.65;;;3.35;;
37657;SDS011;23500;53.268;8.308;2022-12-07T03:59:28;3.53;;;3.25;;
37657;SDS011;23500;53.268;8.308;2022-12-07T04:01:56;3.90;;;3.55;;
37657;SDS011;23500;53.268;8.308;2022-12-07T04:04:26;3.80;;;3.50;;
37657;SDS011;23500;53.268;8.308;2022-12-07T04:06:53;3.20;;;3.00;;
37657;SDS011;23500;53.268;8.308;2022-12-07T04:09:19;3.37;;;3.17;;
37657;SDS011;23500;53.268;8.308;2022-12-07T04:11:46;3.60;;;3.33;;
37657;SDS011;23500;53.268;8.308;2022-12-07T04:14:11;3.67;;;3.42;;
37657;SDS011;23500;53.268;8.308;2022-12-07T04:16:43;3.75;;;3.45;;
37657;SDS011;23500;53.268;8.308;2022-12-07T04:19:14;3.15;;;2.95;;
37657;SDS011;23500;53.268;8.308;2022-12-07T04:21:41;3.40;;;3.20;;
37657;SDS011;23500;53.268;8.308;2022-12-07T04:24:07;3.60;;;3.30;;
37657;SDS011;23500;53.268;8.308;2022-12-07T04:26:33;3.40;;;3.10;;
37657;SDS011;23500;53.268;8.308;2022-12-07T04:28:58;3.67;;;3.38;;
37657;SDS011;23500;53.268;8.308;2022-12-07T04:31:24;3.22;;;3.03;;
37657;SDS011;23500;53.268;8.308;2022-12-07T04:33:50;3.25;;;2.95;;
37657;SDS011;23500;53.268;8.308;2022-12-07T04:36:15;3.53;;;3.22;;
37657;SDS011;23500;53.268;8.308;2022-12-07T04:38:41;3.25;;;3.05;;
37657;SDS011;23500;53.268;8.308;2022-12-07T04:41:08;3.17;;;2.97;;
37657;SDS011;23500;53.268;8.308;2022-12-07T04:43:34;3.22;;;3.03;;
37657;SDS011;23500;53.268;8.308;2022-12-07T04:46:00;3.22;;;2.92;;
37657;SDS011;23500;53.268;8.308;2022-12-07T04:48:26;3.10;;;2.90;;
37657;SDS011;23500;53.268;8.308;2022-12-07T04:50:52;3.00;;;2.80;;
37657;SDS011;23500;53.268;8.308;2022-12-07T04:53:18;3.70;;;3.40;;
37657;SDS011;23500;53.268;8.308;2022-12-07T04:55:44;3.40;;;3.10;;
37657;SDS011;23500;53.268;8.308;2022-12-07T04:58:10;3.20;;;3.00;;
37657;SDS011;23500;53.268;8.308;2022-12-07T05:00:37;3.37;;;3.07;;
37657;SDS011;23500;53.268;8.308;2022-12-07T05:03:03;3.23;;;3.03;;
37657;SDS011;23500;53.268;8.308;2022-12-07T05:05:28;3.08;;;2.88;;
37657;SDS011;23500;53.268;8.308;2022-12-07T05:07:54;3.42;;;3.10;;
37657;SDS011;23500;53.268;8.308;2022-12-07T05:10:19;3.90;;;3.10;;
37657;SDS011;23500;53.268;8.308;2022-12-07T05:12:46;3.15;;;2.88;;
37657;SDS011;23500;53.268;8.308;2022-12-07T05:15:12;2.97;;;2.47;;
37657;SDS011;23500;53.268;8.308;2022-12-07T05:17:38;4.00;;;2.95;;
37657;SDS011;23500;53.268;8.308;2022-12-07T05:20:04;3.08;;;2.88;;
37657;SDS011;23500;53.268;8.308;2022-12-07T05:22:31;3.30;;;3.10;;
37657;SDS011;23500;53.268;8.308;2022-12-07T05:24:56;2.90;;;2.70;;
37657;SDS011;23500;53.268;8.308;2022-12-07T05:27:22;2.97;;;2.78;;
37657;SDS011;23500;53.268;8.308;2022-12-07T05:29:49;2.95;;;2.75;;
37657;SDS011;23500;53.268;8.308;2022-12-07T05:32:15;3.30;;;3.10;;
37657;SDS011;23500;53.268;8.308;2022-12-07T05:34:41;2.97;;;2.78;;
37657;SDS011;23500;53.268;8.308;2022-12-07T05:37:06;3.13;;;2.83;;
37657;SDS011;23500;53.268;8.308;2022-12-07T05:39:32;3.00;;;2.80;;
37657;SDS011;23500;53.268;8.308;2022-12-07T05:41:57;2.70;;;2.50;;
37657;SDS011;23500;53.268;8.308;2022-12-07T05:44:39;2.83;;;2.63;;
37657;SDS011;23500;53.268;8.308;2022-12-07T05:47:06;2.93;;;2.73;;
37657;SDS011;23500;53.268;8.308;2022-12-07T05:49:32;2.80;;;2.60;;
37657;SDS011;23500;53.268;8.308;2022-12-07T05:51:57;3.00;;;2.80;;
37657;SDS011;23500;53.268;8.308;2022-12-07T05:54:23;2.42;;;2.33;;
37657;SDS011;23500;53.268;8.308;2022-12-07T05:56:49;2.80;;;2.60;;
37657;SDS011;23500;53.268;8.308;2022-12-07T05:59:15;2.60;;;2.40;;
37657;SDS011;23500;53.268;8.308;2022-12-07T06:01:54;2.65;;;2.45;;
37657;SDS011;23500;53.268;8.308;2022-12-07T06:04:22;2.40;;;2.20;;
37657;SDS011;23500;53.268;8.308;2022-12-07T06:06:48;2.60;;;2.40;;
37657;SDS011;23500;53.268;8.308;2022-12-07T06:09:14;2.80;;;2.60;;
37657;SDS011;23500;53.268;8.308;2022-12-07T06:11:40;2.60;;;2.42;;
37657;SDS011;23500;53.268;8.308;2022-12-07T06:14:25;2.63;;;2.42;;
37657;SDS011;23500;53.268;8.308;2022-12-07T06:16:51;3.25;;;2.30;;
37657;SDS011;23500;53.268;8.308;2022-12-07T06:19:16;2.60;;;2.40;;
37657;SDS011;23500;53.268;8.308;2022-12-07T06:21:42;2.43;;;2.27;;
37657;SDS011;23500;53.268;8.308;2022-12-07T06:24:11;2.55;;;2.40;;
37657;SDS011;23500;53.268;8.308;2022-12-07T06:26:38;2.50;;;2.30;;
37657;SDS011;23500;53.268;8.308;2022-12-07T06:29:04;2.22;;;2.13;;
37657;SDS011;23500;53.268;8.308;2022-12-07T06:31:30;2.30;;;2.20;;
37657;SDS011;23500;53.268;8.308;2022-12-07T06:33:59;2.70;;;2.50;;
37657;SDS011;23500;53.268;8.308;2022-12-07T06:36:25;2.50;;;2.30;;
37657;SDS011;23500;53.268;8.308;2022-12-07T06:38:51;2.55;;;2.35;;
37657;SDS011;23500;53.268;8.308;2022-12-07T06:41:17;2.30;;;2.20;;
37657;SDS011;23500;53.268;8.308;2022-12-07T06:43:42;4.63;;;2.78;;
37657;SDS011;23500;53.268;8.308;2022-12-07T06:46:08;2.53;;;2.33;;
37657;SDS011;23500;53.268;8.308;2022-12-07T06:48:34;2.70;;;2.47;;
37657;SDS011;23500;53.268;8.308;2022-12-07T06:50:59;2.90;;;2.53;;
37657;SDS011;23500;53.268;8.308;2022-12-07T06:53:25;4.07;;;2.90;;
37657;SDS011;23500;53.268;8.308;2022-12-07T06:55:51;6.40;;;3.00;;
37657;SDS011;23500;53.268;8.308;2022-12-07T06:58:17;7.22;;;3.30;;
37657;SDS011;23500;53.268;8.308;2022-12-07T07:00:43;9.38;;;3.88;;
37657;SDS011;23500;53.268;8.308;2022-12-07T07:03:09;11.95;;;4.03;;
37657;SDS011;23500;53.268;8.308;2022-12-07T07:05:35;10.57;;;3.85;;
37657;SDS011;23500;53.268;8.308;2022-12-07T07:08:00;10.07;;;4.13;;
37657;SDS011;23500;53.268;8.308;2022-12-07T07:10:26;10.00;;;4.25;;
37657;SDS011;23500;53.268;8.308;2022-12-07T07:12:52;11.40;;;4.65;;
37657;SDS011;23500;53.268;8.308;2022-12-07T07:15:17;16.63;;;5.03;;
37657;SDS011;23500;53.268;8.308;2022-12-07T07:17:43;12.98;;;4.65;;
37657;SDS011;23500;53.268;8.308;2022-12-07T07:20:09;13.77;;;4.77;;
37657;SDS011;23500;53.268;8.308;2022-12-07T07:22:35;15.07;;;4.88;;
37657;SDS011;23500;53.268;8.308;2022-12-07T07:25:00;12.70;;;4.90;;
37657;SDS011;23500;53.268;8.308;2022-12-07T07:27:26;13.25;;;4.85;;
37657;SDS011;23500;53.268;8.308;2022-12-07T07:29:52;12.50;;;5.30;;
37657;SDS011;23500;53.268;8.308;2022-12-07T07:32:18;15.05;;;4.88;;
37657;SDS011;23500;53.268;8.308;2022-12-07T07:34:43;13.65;;;4.65;;
37657;SDS011;23500;53.268;8.308;2022-12-07T07:37:09;14.17;;;5.10;;
37657;SDS011;23500;53.268;8.308;2022-12-07T07:39:37;15.47;;;5.17;;
37657;SDS011;23500;53.268;8.308;2022-12-07T07:42:03;20.07;;;5.47;;
37657;SDS011;23500;53.268;8.308;2022-12-07T07:44:29;12.63;;;4.70;;
37657;SDS011;23500;53.268;8.308;2022-12-07T07:46:55;18.63;;;5.70;;
37657;SDS011;23500;53.268;8.308;2022-12-07T07:49:20;15.27;;;5.63;;
37657;SDS011;23500;53.268;8.308;2022-12-07T07:51:46;16.52;;;6.07;;
37657;SDS011;23500;53.268;8.308;2022-12-07T07:54:12;15.48;;;5.88;;
37657;SDS011;23500;53.268;8.308;2022-12-07T07:56:37;17.33;;;6.03;;
37657;SDS011;23500;53.268;8.308;2022-12-07T07:59:03;13.33;;;5.13;;
37657;SDS011;23500;53.268;8.308;2022-12-07T08:01:28;15.47;;;5.27;;
37657;SDS011;23500;53.268;8.308;2022-12-07T08:03:54;15.00;;;5.50;;
37657;SDS011;23500;53.268;8.308;2022-12-07T08:06:20;16.52;;;5.68;;
37657;SDS011;23500;53.268;8.308;2022-12-07T08:08:45;18.20;;;6.10;;
37657;SDS011;23500;53.268;8.308;2022-12-07T08:11:11;13.38;;;5.72;;
37657;SDS011;23500;53.268;8.308;2022-12-07T08:13:37;16.43;;;6.07;;
37657;SDS011;23500;53.268;8.308;2022-12-07T08:16:03;16.30;;;6.00;;
37657;SDS011;23500;53.268;8.308;2022-12-07T08:18:30;17.00;;;6.07;;
37657;SDS011;23500;53.268;8.308;2022-12-07T08:21:00;20.47;;;6.20;;
37657;SDS011;23500;53.268;8.308;2022-12-07T08:23:26;18.33;;;5.77;;
37657;SDS011;23500;53.268;8.308;2022-12-07T08:25:52;16.87;;;6.27;;
37657;SDS011;23500;53.268;8.308;2022-12-07T08:28:17;14.60;;;5.93;;
37657;SDS011;23500;53.268;8.308;2022-12-07T08:30:43;11.95;;;5.70;;
37657;SDS011;23500;53.268;8.308;2022-12-07T08:33:09;14.03;;;5.40;;
37657;SDS011;23500;53.268;8.308;2022-12-07T08:35:35;17.20;;;5.93;;
37657;SDS011;23500;53.268;8.308;2022-12-07T08:38:02;12.33;;;5.40;;
37657;SDS011;23500;53.268;8.308;2022-12-07T08:40:28;13.43;;;5.73;;
37657;SDS011;23500;53.268;8.308;2022-12-07T08:42:54;15.27;;;6.03;;
37657;SDS011;23500;53.268;8.308;2022-12-07T08:45:20;19.10;;;5.37;;
37657;SDS011;23500;53.268;8.308;2022-12-07T08:47:50;16.47;;;5.80;;
37657;SDS011;23500;53.268;8.308;2022-12-07T08:50:25;17.30;;;5.97;;
37657;SDS011;23500;53.268;8.308;2022-12-07T08:52:52;17.63;;;6.10;;
37657;SDS011;23500;53.268;8.308;2022-12-07T08:55:21;14.77;;;5.50;;
37657;SDS011;23500;53.268;8.308;2022-12-07T08:57:48;13.53;;;5.43;;
37657;SDS011;23500;53.268;8.308;2022-12-07T09:00:14;16.67;;;5.20;;
37657;SDS011;23500;53.268;8.308;2022-12-07T09:02:42;14.93;;;5.32;;
37657;SDS011;23500;53.268;8.308;2022-12-07T09:05:09;15.90;;;5.90;;
37657;SDS011;23500;53.268;8.308;2022-12-07T09:07:35;14.68;;;5.63;;
37657;SDS011;23500;53.268;8.308;2022-12-07T09:10:02;17.60;;;5.60;;
37657;SDS011;23500;53.268;8.308;2022-12-07T09:12:29;12.48;;;5.18;;
37657;SDS011;23500;53.268;8.308;2022-12-07T09:14:55;12.80;;;5.33;;
37657;SDS011;23500;53.268;8.308;2022-12-07T09:17:21;15.50;;;5.60;;
37657;SDS011;23500;53.268;8.308;2022-12-07T09:19:46;11.85;;;4.90;;
37657;SDS011;23500;53.268;8.308;2022-12-07T09:22:12;11.82;;;5.40;;
37657;SDS011;23500;53.268;8.308;2022-12-07T09:24:38;14.63;;;5.65;;
37657;SDS011;23500;53.268;8.308;2022-12-07T09:27:04;14.57;;;5.43;;
37657;SDS011;23500;53.268;8.308;2022-12-07T09:29:30;12.10;;;5.23;;
37657;SDS011;23500;53.268;8.308;2022-12-07T09:31:55;16.07;;;5.70;;
37657;SDS011;23500;53.268;8.308;2022-12-07T09:34:21;13.33;;;5.23;;
37657;SDS011;23500;53.268;8.308;2022-12-07T09:36:46;13.30;;;5.90;;
37657;SDS011;23500;53.268;8.308;2022-12-07T09:39:12;14.45;;;5.60;;
37657;SDS011;23500;53.268;8.308;2022-12-07T09:41:41;11.17;;;4.73;;
37657;SDS011;23500;53.268;8.308;2022-12-07T09:44:11;15.45;;;5.10;;
37657;SDS011;23500;53.268;8.308;2022-12-07T09:46:40;14.13;;;5.43;;
37657;SDS011;23500;53.268;8.308;2022-12-07T09:49:10;11.77;;;5.35;;
37657;SDS011;23500;53.268;8.308;2022-12-07T09:51:39;12.20;;;4.87;;
37657;SDS011;23500;53.268;8.308;2022-12-07T09:54:05;15.80;;;5.90;;
37657;SDS011;23500;53.268;8.308;2022-12-07T09:56:31;10.53;;;4.50;;
37657;SDS011;23500;53.268;8.308;2022-12-07T09:59:00;13.80;;;5.53;;
37657;SDS011;23500;53.268;8.308;2022-12-07T10:01:28;11.57;;;5.03;;
37657;SDS011;23500;53.268;8.308;2022-12-07T10:04:01;11.03;;;4.67;;
37657;SDS011;23500;53.268;8.308;2022-12-07T10:06:41;11.93;;;4.83;;
37657;SDS011;23500;53.268;8.308;2022-12-07T10:09:17;12.50;;;5.15;;
37657;SDS011;23500;53.268;8.308;2022-12-07T10:14:32;12.43;;;5.23;;
37657;SDS011;23500;53.268;8.308;2022-12-07T10:16:59;11.03;;;5.07;;
37657;SDS011;23500;53.268;8.308;2022-12-07T10:19:27;11.40;;;4.60;;
37657;SDS011;23500;53.268;8.308;2022-12-07T10:24:40;14.07;;;5.20;;
37657;SDS011;23500;53.268;8.308;2022-12-07T10:27:17;12.82;;;4.80;;
37657;SDS011;23500;53.268;8.308;2022-12-07T10:29:51;13.63;;;5.03;;
37657;SDS011;23500;53.268;8.308;2022-12-07T10:34:44;12.25;;;5.22;;
37657;SDS011;23500;53.268;8.308;2022-12-07T10:39:44;9.03;;;4.33;;
37657;SDS011;23500;53.268;8.308;2022-12-07T10:42:25;13.38;;;5.30;;
37657;SDS011;23500;53.268;8.308;2022-12-07T10:45:09;12.33;;;5.20;;
37657;SDS011;23500;53.268;8.308;2022-12-07T10:47:51;12.33;;;5.37;;
37657;SDS011;23500;53.268;8.308;2022-12-07T10:58:50;11.05;;;4.57;;
37657;SDS011;23500;53.268;8.308;2022-12-07T11:01:53;10.63;;;4.33;;
37657;SDS011;23500;53.268;8.308;2022-12-07T11:07:25;10.13;;;4.47;;
37657;SDS011;23500;53.268;8.308;2022-12-07T11:09:59;9.85;;;4.57;;
37657;SDS011;23500;53.268;8.308;2022-12-07T11:15:55;11.43;;;4.87;;
37657;SDS011;23500;53.268;8.308;2022-12-07T11:21:08;11.98;;;4.40;;
37657;SDS011;23500;53.268;8.308;2022-12-07T11:23:49;10.15;;;4.20;;
37657;SDS011;23500;53.268;8.308;2022-12-07T11:26:20;9.00;;;4.45;;
37657;SDS011;23500;53.268;8.308;2022-12-07T11:32:22;8.93;;;4.32;;
37657;SDS011;23500;53.268;8.308;2022-12-07T11:37:32;9.90;;;4.40;;
37657;SDS011;23500;53.268;8.308;2022-12-07T11:42:55;9.87;;;4.30;;
37657;SDS011;23500;53.268;8.308;2022-12-07T11:45:27;9.97;;;4.47;;
37657;SDS011;23500;53.268;8.308;2022-12-07T11:47:59;12.23;;;4.53;;
37657;SDS011;23500;53.268;8.308;2022-12-07T11:50:33;8.07;;;4.00;;
37657;SDS011;23500;53.268;8.308;2022-12-07T11:53:10;9.32;;;4.38;;
37657;SDS011;23500;53.268;8.308;2022-12-07T11:58:32;8.37;;;3.63;;
37657;SDS011;23500;53.268;8.308;2022-12-07T12:03:41;10.27;;;4.33;;
37657;SDS011;23500;53.268;8.308;2022-12-07T12:06:11;10.37;;;4.03;;
37657;SDS011;23500;53.268;8.308;2022-12-07T12:08:39;10.00;;;4.40;;
37657;SDS011;23500;53.268;8.308;2022-12-07T12:14:02;9.18;;;3.95;;
37657;SDS011;23500;53.268;8.308;2022-12-07T12:22:28;7.93;;;3.92;;
37657;SDS011;23500;53.268;8.308;2022-12-07T12:25:20;9.20;;;3.77;;
37657;SDS011;23500;53.268;8.308;2022-12-07T12:27:52;7.83;;;3.80;;
37657;SDS011;23500;53.268;8.308;2022-12-07T12:30:39;10.67;;;4.03;;
37657;SDS011;23500;53.268;8.308;2022-12-07T12:35:45;8.70;;;3.70;;
37657;SDS011;23500;53.268;8.308;2022-12-07T12:38:24;7.50;;;3.73;;
37657;SDS011;23500;53.268;8.308;2022-12-07T12:40:50;8.20;;;3.67;;
37657;SDS011;23500;53.268;8.308;2022-12-07T12:51:39;8.70;;;3.55;;
37657;SDS011;23500;53.268;8.308;2022-12-07T12:54:14;8.13;;;3.40;;
37657;SDS011;23500;53.268;8.308;2022-12-07T13:02:26;6.80;;;3.55;;
37657;SDS011;23500;53.268;8.308;2022-12-07T13:12:58;8.63;;;3.35;;
37657;SDS011;23500;53.268;8.308;2022-12-07T13:18:03;5.88;;;3.13;;
37657;SDS011;23500;53.268;8.308;2022-12-07T13:23:12;7.72;;;3.47;;
37657;SDS011;23500;53.268;8.308;2022-12-07T13:25:44;6.18;;;3.10;;
37657;SDS011;23500;53.268;8.308;2022-12-07T13:28:20;6.18;;;3.28;;
37657;SDS011;23500;53.268;8.308;2022-12-07T13:33:22;6.38;;;3.65;;
37657;SDS011;23500;53.268;8.308;2022-12-07T13:35:49;7.95;;;3.40;;
37657;SDS011;23500;53.268;8.308;2022-12-07T13:38:40;7.22;;;3.38;;
37657;SDS011;23500;53.268;8.308;2022-12-07T13:41:14;5.47;;;3.17;;
37657;SDS011;23500;53.268;8.308;2022-12-07T13:43:52;5.85;;;3.20;;
37657;SDS011;23500;53.268;8.308;2022-12-07T13:46:25;7.40;;;3.30;;
37657;SDS011;23500;53.268;8.308;2022-12-07T13:49:19;4.82;;;2.80;;
37657;SDS011;23500;53.268;8.308;2022-12-07T13:51:47;5.93;;;3.33;;
37657;SDS011;23500;53.268;8.308;2022-12-07T13:54:13;5.93;;;3.22;;
37657;SDS011;23500;53.268;8.308;2022-12-07T13:56:39;7.32;;;3.67;;
37657;SDS011;23500;53.268;8.308;2022-12-07T13:59:24;4.63;;;2.97;;
37657;SDS011;23500;53.268;8.308;2022-12-07T14:01:52;5.47;;;2.92;;
37657;SDS011;23500;53.268;8.308;2022-12-07T14:04:32;6.82;;;3.30;;
37657;SDS011;23500;53.268;8.308;2022-12-07T14:07:00;6.60;;;3.05;;
37657;SDS011;23500;53.268;8.308;2022-12-07T14:09:27;6.25;;;3.08;;
37657;SDS011;23500;53.268;8.308;2022-12-07T14:11:55;6.28;;;3.17;;
37657;SDS011;23500;53.268;8.308;2022-12-07T14:14:22;5.07;;;2.85;;
37657;SDS011;23500;53.268;8.308;2022-12-07T14:17:01;4.38;;;2.33;;
37657;SDS011;23500;53.268;8.308;2022-12-07T14:22:35;5.05;;;2.80;;
37657;SDS011;23500;53.268;8.308;2022-12-07T14:25:22;5.00;;;3.05;;
37657;SDS011;23500;53.268;8.308;2022-12-07T14:27:57;5.47;;;2.90;;
37657;SDS011;23500;53.268;8.308;2022-12-07T14:30:29;7.00;;;2.88;;
37657;SDS011;23500;53.268;8.308;2022-12-07T14:32:59;5.25;;;2.90;;
37657;SDS011;23500;53.268;8.308;2022-12-07T14:35:26;5.25;;;2.67;;
37657;SDS011;23500;53.268;8.308;2022-12-07T14:37:52;6.60;;;2.90;;
37657;SDS011;23500;53.268;8.308;2022-12-07T14:40:19;5.50;;;2.78;;
37657;SDS011;23500;53.268;8.308;2022-12-07T14:42:47;4.25;;;2.42;;
37657;SDS011;23500;53.268;8.308;2022-12-07T14:45:34;5.70;;;2.65;;
37657;SDS011;23500;53.268;8.308;2022-12-07T14:48:00;4.85;;;2.67;;
37657;SDS011;23500;53.268;8.308;2022-12-07T14:50:25;5.18;;;2.45;;
37657;SDS011;23500;53.268;8.308;2022-12-07T14:52:55;5.30;;;3.05;;
37657;SDS011;23500;53.268;8.308;2022-12-07T14:55:25;4.90;;;2.67;;
37657;SDS011;23500;53.268;8.308;2022-12-07T14:57:53;3.83;;;2.30;;
37657;SDS011;23500;53.268;8.308;2022-12-07T15:00:19;5.22;;;2.60;;
37657;SDS011;23500;53.268;8.308;2022-12-07T15:02:46;4.78;;;2.42;;
37657;SDS011;23500;53.268;8.308;2022-12-07T15:05:13;4.18;;;2.58;;
37657;SDS011;23500;53.268;8.308;2022-12-07T15:07:40;5.35;;;2.70;;
37657;SDS011;23500;53.268;8.308;2022-12-07T15:10:06;4.45;;;2.78;;
37657;SDS011;23500;53.268;8.308;2022-12-07T15:12:39;4.28;;;2.40;;
37657;SDS011;23500;53.268;8.308;2022-12-07T15:15:05;4.05;;;2.60;;
37657;SDS011;23500;53.268;8.308;2022-12-07T15:17:31;3.75;;;2.50;;
37657;SDS011;23500;53.268;8.308;2022-12-07T15:19:56;5.38;;;2.88;;
37657;SDS011;23500;53.268;8.308;2022-12-07T15:22:22;3.78;;;2.70;;
37657;SDS011;23500;53.268;8.308;2022-12-07T15:24:48;5.38;;;2.53;;
37657;SDS011;23500;53.268;8.308;2022-12-07T15:27:13;4.55;;;2.22;;
37657;SDS011;23500;53.268;8.308;2022-12-07T15:29:39;4.78;;;2.38;;
37657;SDS011;23500;53.268;8.308;2022-12-07T15:32:05;3.58;;;2.22;;
37657;SDS011;23500;53.268;8.308;2022-12-07T15:34:30;4.50;;;2.15;;
37657;SDS011;23500;53.268;8.308;2022-12-07T15:36:56;5.00;;;2.78;;
37657;SDS011;23500;53.268;8.308;2022-12-07T15:39:22;4.18;;;2.50;;
37657;SDS011;23500;53.268;8.308;2022-12-07T15:41:48;3.45;;;2.10;;
37657;SDS011;23500;53.268;8.308;2022-12-07T15:44:14;4.32;;;2.63;;
37657;SDS011;23500;53.268;8.308;2022-12-07T15:46:58;3.55;;;2.30;;
37657;SDS011;23500;53.268;8.308;2022-12-07T15:49:25;5.25;;;2.95;;
37657;SDS011;23500;53.268;8.308;2022-12-07T15:51:51;4.40;;;2.35;;
37657;SDS011;23500;53.268;8.308;2022-12-07T15:54:20;4.57;;;2.30;;
37657;SDS011;23500;53.268;8.308;2022-12-07T15:56:49;4.88;;;2.55;;
37657;SDS011;23500;53.268;8.308;2022-12-07T15:59:15;4.38;;;2.25;;
37657;SDS011;23500;53.268;8.308;2022-12-07T16:01:41;4.28;;;2.10;;
37657;SDS011;23500;53.268;8.308;2022-12-07T16:04:07;3.75;;;2.33;;
37657;SDS011;23500;53.268;8.308;2022-12-07T16:06:32;4.93;;;2.40;;
37657;SDS011;23500;53.268;8.308;2022-12-07T16:08:58;4.10;;;2.40;;
37657;SDS011;23500;53.268;8.308;2022-12-07T16:11:24;3.17;;;1.83;;
37657;SDS011;23500;53.268;8.308;2022-12-07T16:13:50;3.72;;;2.05;;
37657;SDS011;23500;53.268;8.308;2022-12-07T16:16:16;4.55;;;2.15;;
37657;SDS011;23500;53.268;8.308;2022-12-07T16:18:43;3.15;;;2.00;;
37657;SDS011;23500;53.268;8.308;2022-12-07T16:21:10;4.15;;;2.53;;
37657;SDS011;23500;53.268;8.308;2022-12-07T16:23:36;5.40;;;2.40;;
37657;SDS011;23500;53.268;8.308;2022-12-07T16:26:08;4.03;;;2.42;;
37657;SDS011;23500;53.268;8.308;2022-12-07T16:28:41;3.90;;;2.40;;
37657;SDS011;23500;53.268;8.308;2022-12-07T16:31:09;4.00;;;2.60;;
37657;SDS011;23500;53.268;8.308;2022-12-07T16:33:40;3.28;;;2.35;;
37657;SDS011;23500;53.268;8.308;2022-12-07T16:36:08;3.20;;;2.28;;
37657;SDS011;23500;53.268;8.308;2022-12-07T16:38:35;3.72;;;2.30;;
37657;SDS011;23500;53.268;8.308;2022-12-07T16:41:02;3.90;;;2.47;;
37657;SDS011;23500;53.268;8.308;2022-12-07T16:43:27;3.67;;;2.25;;
37657;SDS011;23500;53.268;8.308;2022-12-07T16:45:53;3.13;;;2.37;;
37657;SDS011;23500;53.268;8.308;2022-12-07T16:48:19;3.40;;;2.40;;
37657;SDS011;23500;53.268;8.308;2022-12-07T16:50:45;4.05;;;2.30;;
37657;SDS011;23500;53.268;8.308;2022-12-07T16:53:12;4.82;;;2.70;;
37657;SDS011;23500;53.268;8.308;2022-12-07T16:55:39;2.58;;;2.13;;